sensor_id;sensor_type;location;lat;lon;timestamp;temperature;humidity
9723;DHT22;4900;49.306;8.500;2023-05-07T00:01:02;17.16;67.66
9723;DHT22;4900;49.306;8.500;2023-05-07T00:03:28;17.19;67.49
9723;DHT22;4900;49.306;8.500;2023-05-07T00:05:54;17.22;67.34
9723;DHT22;4900;49.306;8.500;2023-05-07T00:08:19;17.23;67.40
9723;DHT22;4900;49.306;8.500;2023-05-07T00:10:46;17.23;67.72
9723;DHT22;4900;49.306;8.500;2023-05-07T00:13:11;17.22;67.82
9723;DHT22;4900;49.306;8.500;2023-05-07T00:15:37;17.20;67.77
9723;DHT22;4900;49.306;8.500;2023-05-07T00:18:02;17.20;67.74
9723;DHT22;4900;49.306;8.500;2023-05-07T00:20:28;17.19;67.71
9723;DHT22;4900;49.306;8.500;2023-05-07T00:22:53;17.18;67.68
9723;DHT22;4900;49.306;8.500;2023-05-07T00:25:19;17.15;67.71
9723;DHT22;4900;49.306;8.500;2023-05-07T00:27:45;17.08;67.81
9723;DHT22;4900;49.306;8.500;2023-05-07T00:30:11;17.02;67.91
9723;DHT22;4900;49.306;8.500;2023-05-07T00:32:36;16.96;68.03
9723;DHT22;4900;49.306;8.500;2023-05-07T00:35:03;16.92;68.02
9723;DHT22;4900;49.306;8.500;2023-05-07T00:37:29;16.85;68.21
9723;DHT22;4900;49.306;8.500;2023-05-07T00:39:55;16.81;68.24
9723;DHT22;4900;49.306;8.500;2023-05-07T00:42:20;16.77;68.42
9723;DHT22;4900;49.306;8.500;2023-05-07T00:44:46;16.69;68.35
9723;DHT22;4900;49.306;8.500;2023-05-07T00:47:11;16.67;68.45
9723;DHT22;4900;49.306;8.500;2023-05-07T00:49:39;16.63;68.46
9723;DHT22;4900;49.306;8.500;2023-05-07T00:52:07;16.60;68.52
9723;DHT22;4900;49.306;8.500;2023-05-07T00:54:34;16.58;68.64
9723;DHT22;4900;49.306;8.500;2023-05-07T00:57:02;16.53;68.72
9723;DHT22;4900;49.306;8.500;2023-05-07T00:59:28;16.49;68.94
9723;DHT22;4900;49.306;8.500;2023-05-07T01:01:53;16.44;69.06
9723;DHT22;4900;49.306;8.500;2023-05-07T01:04:19;16.44;69.34
9723;DHT22;4900;49.306;8.500;2023-05-07T01:06:45;16.37;69.39
9723;DHT22;4900;49.306;8.500;2023-05-07T01:09:11;16.34;69.37
9723;DHT22;4900;49.306;8.500;2023-05-07T01:11:37;16.32;69.59
9723;DHT22;4900;49.306;8.500;2023-05-07T01:14:03;16.29;69.57
9723;DHT22;4900;49.306;8.500;2023-05-07T01:16:28;16.26;69.64
9723;DHT22;4900;49.306;8.500;2023-05-07T01:18:55;16.21;69.66
9723;DHT22;4900;49.306;8.500;2023-05-07T01:21:25;16.18;69.82
9723;DHT22;4900;49.306;8.500;2023-05-07T01:23:52;16.11;69.80
9723;DHT22;4900;49.306;8.500;2023-05-07T01:26:17;16.04;70.06
9723;DHT22;4900;49.306;8.500;2023-05-07T01:28:45;16.05;70.02
9723;DHT22;4900;49.306;8.500;2023-05-07T01:31:12;15.99;70.02
9723;DHT22;4900;49.306;8.500;2023-05-07T01:33:38;15.96;70.19
9723;DHT22;4900;49.306;8.500;2023-05-07T01:36:06;15.91;70.13
9723;DHT22;4900;49.306;8.500;2023-05-07T01:38:34;15.87;70.22
9723;DHT22;4900;49.306;8.500;2023-05-07T01:41:01;15.82;70.24
9723;DHT22;4900;49.306;8.500;2023-05-07T01:43:28;15.77;70.57
9723;DHT22;4900;49.306;8.500;2023-05-07T01:45:53;15.70;71.07
9723;DHT22;4900;49.306;8.500;2023-05-07T01:48:19;15.67;71.23
9723;DHT22;4900;49.306;8.500;2023-05-07T01:50:46;15.66;71.27
9723;DHT22;4900;49.306;8.500;2023-05-07T01:53:12;15.63;71.31
9723;DHT22;4900;49.306;8.500;2023-05-07T01:55:37;15.57;71.43
9723;DHT22;4900;49.306;8.500;2023-05-07T01:58:04;15.51;71.53
9723;DHT22;4900;49.306;8.500;2023-05-07T02:00:29;15.51;71.73
9723;DHT22;4900;49.306;8.500;2023-05-07T02:02:55;15.50;71.69
9723;DHT22;4900;49.306;8.500;2023-05-07T02:05:20;15.51;71.78
9723;DHT22;4900;49.306;8.500;2023-05-07T02:07:46;15.51;71.85
9723;DHT22;4900;49.306;8.500;2023-05-07T02:10:11;15.53;72.03
9723;DHT22;4900;49.306;8.500;2023-05-07T02:12:36;15.51;72.03
9723;DHT22;4900;49.306;8.500;2023-05-07T02:15:02;15.50;72.11
9723;DHT22;4900;49.306;8.500;2023-05-07T02:17:27;15.51;72.20
9723;DHT22;4900;49.306;8.500;2023-05-07T02:19:57;15.50;72.03
9723;DHT22;4900;49.306;8.500;2023-05-07T02:22:22;15.47;71.98
9723;DHT22;4900;49.306;8.500;2023-05-07T02:24:48;15.47;71.91
9723;DHT22;4900;49.306;8.500;2023-05-07T02:27:14;15.49;71.79
9723;DHT22;4900;49.306;8.500;2023-05-07T02:29:39;15.43;71.86
9723;DHT22;4900;49.306;8.500;2023-05-07T02:32:05;15.42;71.94
9723;DHT22;4900;49.306;8.500;2023-05-07T02:34:30;15.43;71.97
9723;DHT22;4900;49.306;8.500;2023-05-07T02:36:56;15.43;72.07
9723;DHT22;4900;49.306;8.500;2023-05-07T02:39:22;15.42;72.07
9723;DHT22;4900;49.306;8.500;2023-05-07T02:41:47;15.42;72.22
9723;DHT22;4900;49.306;8.500;2023-05-07T02:44:13;15.42;72.10
9723;DHT22;4900;49.306;8.500;2023-05-07T02:46:38;15.39;72.15
9723;DHT22;4900;49.306;8.500;2023-05-07T02:49:03;15.42;72.18
9723;DHT22;4900;49.306;8.500;2023-05-07T02:51:30;15.40;72.32
9723;DHT22;4900;49.306;8.500;2023-05-07T02:53:55;15.42;72.20
9723;DHT22;4900;49.306;8.500;2023-05-07T02:56:21;15.42;72.17
9723;DHT22;4900;49.306;8.500;2023-05-07T02:58:47;15.39;72.47
9723;DHT22;4900;49.306;8.500;2023-05-07T03:01:12;15.43;72.33
9723;DHT22;4900;49.306;8.500;2023-05-07T03:03:39;15.44;72.37
9723;DHT22;4900;49.306;8.500;2023-05-07T03:06:06;15.46;72.43
9723;DHT22;4900;49.306;8.500;2023-05-07T03:08:32;15.46;72.37
9723;DHT22;4900;49.306;8.500;2023-05-07T03:10:58;15.46;72.35
9723;DHT22;4900;49.306;8.500;2023-05-07T03:13:23;15.50;72.18
9723;DHT22;4900;49.306;8.500;2023-05-07T03:15:49;15.46;72.16
9723;DHT22;4900;49.306;8.500;2023-05-07T03:18:14;15.42;72.17
9723;DHT22;4900;49.306;8.500;2023-05-07T03:20:40;15.40;72.29
9723;DHT22;4900;49.306;8.500;2023-05-07T03:23:05;15.36;72.36
9723;DHT22;4900;49.306;8.500;2023-05-07T03:25:31;15.32;72.46
9723;DHT22;4900;49.306;8.500;2023-05-07T03:27:57;15.32;72.45
9723;DHT22;4900;49.306;8.500;2023-05-07T03:30:22;15.28;72.37
9723;DHT22;4900;49.306;8.500;2023-05-07T03:32:48;15.22;72.50
9723;DHT22;4900;49.306;8.500;2023-05-07T03:35:13;15.20;72.43
9723;DHT22;4900;49.306;8.500;2023-05-07T03:37:39;15.16;72.36
9723;DHT22;4900;49.306;8.500;2023-05-07T03:40:05;15.12;72.35
9723;DHT22;4900;49.306;8.500;2023-05-07T03:42:31;15.08;72.37
9723;DHT22;4900;49.306;8.500;2023-05-07T03:44:56;15.05;72.34
9723;DHT22;4900;49.306;8.500;2023-05-07T03:47:22;15.04;72.32
9723;DHT22;4900;49.306;8.500;2023-05-07T03:49:47;14.99;72.25
9723;DHT22;4900;49.306;8.500;2023-05-07T03:52:14;14.98;72.28
9723;DHT22;4900;49.306;8.500;2023-05-07T03:54:40;14.95;72.58
9723;DHT22;4900;49.306;8.500;2023-05-07T03:57:06;14.91;72.68
9723;DHT22;4900;49.306;8.500;2023-05-07T03:59:31;14.91;73.01
9723;DHT22;4900;49.306;8.500;2023-05-07T04:01:56;14.91;73.14
9723;DHT22;4900;49.306;8.500;2023-05-07T04:04:22;14.88;73.36
9723;DHT22;4900;49.306;8.500;2023-05-07T04:06:47;14.91;73.38
9723;DHT22;4900;49.306;8.500;2023-05-07T04:09:13;14.89;73.39
9723;DHT22;4900;49.306;8.500;2023-05-07T04:11:38;14.92;73.45
9723;DHT22;4900;49.306;8.500;2023-05-07T04:14:05;14.95;73.37
9723;DHT22;4900;49.306;8.500;2023-05-07T04:16:31;14.98;73.51
9723;DHT22;4900;49.306;8.500;2023-05-07T04:18:56;14.99;73.54
9723;DHT22;4900;49.306;8.500;2023-05-07T04:21:22;15.05;73.42
9723;DHT22;4900;49.306;8.500;2023-05-07T04:23:48;15.08;73.23
9723;DHT22;4900;49.306;8.500;2023-05-07T04:26:14;15.11;73.30
9723;DHT22;4900;49.306;8.500;2023-05-07T04:28:40;15.15;73.13
9723;DHT22;4900;49.306;8.500;2023-05-07T04:31:06;15.19;73.10
9723;DHT22;4900;49.306;8.500;2023-05-07T04:33:32;15.25;73.04
9723;DHT22;4900;49.306;8.500;2023-05-07T04:35:58;15.33;72.91
9723;DHT22;4900;49.306;8.500;2023-05-07T04:38:30;15.42;72.72
9723;DHT22;4900;49.306;8.500;2023-05-07T04:40:57;15.50;72.57
9723;DHT22;4900;49.306;8.500;2023-05-07T04:43:22;15.56;72.25
9723;DHT22;4900;49.306;8.500;2023-05-07T04:45:50;15.66;72.30
9723;DHT22;4900;49.306;8.500;2023-05-07T04:48:15;15.74;72.18
9723;DHT22;4900;49.306;8.500;2023-05-07T04:50:41;15.81;71.95
9723;DHT22;4900;49.306;8.500;2023-05-07T04:53:06;15.91;71.81
9723;DHT22;4900;49.306;8.500;2023-05-07T04:55:32;15.98;71.63
9723;DHT22;4900;49.306;8.500;2023-05-07T04:57:57;16.05;71.40
9723;DHT22;4900;49.306;8.500;2023-05-07T05:00:23;16.13;71.40
9723;DHT22;4900;49.306;8.500;2023-05-07T05:02:48;16.22;71.29
9723;DHT22;4900;49.306;8.500;2023-05-07T05:05:14;16.29;71.14
9723;DHT22;4900;49.306;8.500;2023-05-07T05:07:40;16.39;71.05
9723;DHT22;4900;49.306;8.500;2023-05-07T05:10:05;16.49;70.80
9723;DHT22;4900;49.306;8.500;2023-05-07T05:12:31;16.61;70.55
9723;DHT22;4900;49.306;8.500;2023-05-07T05:14:56;16.72;70.21
9723;DHT22;4900;49.306;8.500;2023-05-07T05:17:22;16.84;69.86
9723;DHT22;4900;49.306;8.500;2023-05-07T05:19:47;16.94;69.66
9723;DHT22;4900;49.306;8.500;2023-05-07T05:22:12;17.04;69.44
9723;DHT22;4900;49.306;8.500;2023-05-07T05:24:38;17.12;69.17
9723;DHT22;4900;49.306;8.500;2023-05-07T05:27:05;17.23;68.98
9723;DHT22;4900;49.306;8.500;2023-05-07T05:29:30;17.32;68.73
9723;DHT22;4900;49.306;8.500;2023-05-07T05:31:58;17.43;68.31
9723;DHT22;4900;49.306;8.500;2023-05-07T05:34:24;17.47;68.09
9723;DHT22;4900;49.306;8.500;2023-05-07T05:36:49;17.55;67.87
9723;DHT22;4900;49.306;8.500;2023-05-07T05:39:15;17.63;67.72
9723;DHT22;4900;49.306;8.500;2023-05-07T05:41:40;17.73;67.53
9723;DHT22;4900;49.306;8.500;2023-05-07T05:44:06;17.78;67.50
9723;DHT22;4900;49.306;8.500;2023-05-07T05:46:32;17.98;67.05
9723;DHT22;4900;49.306;8.500;2023-05-07T05:48:57;18.13;66.74
9723;DHT22;4900;49.306;8.500;2023-05-07T05:51:22;18.36;66.33
9723;DHT22;4900;49.306;8.500;2023-05-07T05:53:48;18.60;65.73
9723;DHT22;4900;49.306;8.500;2023-05-07T05:56:14;18.78;65.24
9723;DHT22;4900;49.306;8.500;2023-05-07T05:58:40;18.96;64.86
9723;DHT22;4900;49.306;8.500;2023-05-07T06:01:05;19.04;64.67
9723;DHT22;4900;49.306;8.500;2023-05-07T06:03:31;19.12;64.70
9723;DHT22;4900;49.306;8.500;2023-05-07T06:05:57;19.23;64.58
9723;DHT22;4900;49.306;8.500;2023-05-07T06:08:23;19.41;64.25
9723;DHT22;4900;49.306;8.500;2023-05-07T06:10:49;19.46;64.16
9723;DHT22;4900;49.306;8.500;2023-05-07T06:13:14;19.65;63.67
9723;DHT22;4900;49.306;8.500;2023-05-07T06:15:40;19.87;63.23
9723;DHT22;4900;49.306;8.500;2023-05-07T06:18:05;19.95;63.09
9723;DHT22;4900;49.306;8.500;2023-05-07T06:20:31;20.06;62.86
9723;DHT22;4900;49.306;8.500;2023-05-07T06:22:56;20.34;62.19
9723;DHT22;4900;49.306;8.500;2023-05-07T06:25:22;20.34;61.97
9723;DHT22;4900;49.306;8.500;2023-05-07T06:27:47;20.40;61.72
9723;DHT22;4900;49.306;8.500;2023-05-07T06:30:12;20.57;61.28
9723;DHT22;4900;49.306;8.500;2023-05-07T06:32:40;20.78;60.92
9723;DHT22;4900;49.306;8.500;2023-05-07T06:35:05;21.06;60.38
9723;DHT22;4900;49.306;8.500;2023-05-07T06:37:31;21.29;59.80
9723;DHT22;4900;49.306;8.500;2023-05-07T06:39:56;21.41;59.47
9723;DHT22;4900;49.306;8.500;2023-05-07T06:42:22;21.58;58.84
9723;DHT22;4900;49.306;8.500;2023-05-07T06:44:47;22.02;57.91
9723;DHT22;4900;49.306;8.500;2023-05-07T06:47:13;22.44;56.81
9723;DHT22;4900;49.306;8.500;2023-05-07T06:49:38;22.60;56.29
9723;DHT22;4900;49.306;8.500;2023-05-07T06:52:04;22.68;55.86
9723;DHT22;4900;49.306;8.500;2023-05-07T06:54:29;22.75;55.85
9723;DHT22;4900;49.306;8.500;2023-05-07T06:56:55;22.96;55.58
9723;DHT22;4900;49.306;8.500;2023-05-07T06:59:20;23.16;55.06
9723;DHT22;4900;49.306;8.500;2023-05-07T07:01:46;23.34;54.55
9723;DHT22;4900;49.306;8.500;2023-05-07T07:04:11;23.69;53.77
9723;DHT22;4900;49.306;8.500;2023-05-07T07:06:37;24.06;52.73
9723;DHT22;4900;49.306;8.500;2023-05-07T07:09:09;24.28;51.69
9723;DHT22;4900;49.306;8.500;2023-05-07T07:11:34;24.41;51.14
9723;DHT22;4900;49.306;8.500;2023-05-07T07:14:00;24.72;51.09
9723;DHT22;4900;49.306;8.500;2023-05-07T07:16:25;25.33;49.97
9723;DHT22;4900;49.306;8.500;2023-05-07T07:18:51;25.85;49.02
9723;DHT22;4900;49.306;8.500;2023-05-07T07:21:16;26.51;48.34
9723;DHT22;4900;49.306;8.500;2023-05-07T07:23:42;26.75;47.00
9723;DHT22;4900;49.306;8.500;2023-05-07T07:26:07;27.13;46.60
9723;DHT22;4900;49.306;8.500;2023-05-07T07:28:33;27.40;45.82
9723;DHT22;4900;49.306;8.500;2023-05-07T07:30:58;27.71;45.05
9723;DHT22;4900;49.306;8.500;2023-05-07T07:33:23;27.95;44.60
9723;DHT22;4900;49.306;8.500;2023-05-07T07:35:49;27.90;44.42
9723;DHT22;4900;49.306;8.500;2023-05-07T07:38:14;27.88;44.46
9723;DHT22;4900;49.306;8.500;2023-05-07T07:40:40;27.58;44.56
9723;DHT22;4900;49.306;8.500;2023-05-07T07:43:05;27.47;45.10
9723;DHT22;4900;49.306;8.500;2023-05-07T07:45:31;27.64;44.74
9723;DHT22;4900;49.306;8.500;2023-05-07T07:47:56;27.83;44.70
9723;DHT22;4900;49.306;8.500;2023-05-07T07:50:22;28.41;43.98
9723;DHT22;4900;49.306;8.500;2023-05-07T07:52:48;28.99;42.65
9723;DHT22;4900;49.306;8.500;2023-05-07T07:55:14;29.54;42.23
9723;DHT22;4900;49.306;8.500;2023-05-07T07:57:43;29.79;41.17
9723;DHT22;4900;49.306;8.500;2023-05-07T08:00:09;30.14;40.48
9723;DHT22;4900;49.306;8.500;2023-05-07T08:02:34;30.31;40.13
9723;DHT22;4900;49.306;8.500;2023-05-07T08:05:00;30.78;39.97
9723;DHT22;4900;49.306;8.500;2023-05-07T08:07:25;31.12;39.35
9723;DHT22;4900;49.306;8.500;2023-05-07T08:09:51;31.24;39.03
9723;DHT22;4900;49.306;8.500;2023-05-07T08:12:16;31.33;38.76
9723;DHT22;4900;49.306;8.500;2023-05-07T08:14:42;31.41;38.60
9723;DHT22;4900;49.306;8.500;2023-05-07T08:17:07;31.17;38.58
9723;DHT22;4900;49.306;8.500;2023-05-07T08:19:34;31.07;38.77
9723;DHT22;4900;49.306;8.500;2023-05-07T08:22:02;31.12;38.95
9723;DHT22;4900;49.306;8.500;2023-05-07T08:24:29;31.09;39.15
9723;DHT22;4900;49.306;8.500;2023-05-07T08:26:54;31.00;38.65
9723;DHT22;4900;49.306;8.500;2023-05-07T08:29:20;30.88;38.80
9723;DHT22;4900;49.306;8.500;2023-05-07T08:31:45;31.05;38.56
9723;DHT22;4900;49.306;8.500;2023-05-07T08:34:11;31.40;38.50
9723;DHT22;4900;49.306;8.500;2023-05-07T08:36:36;32.05;37.87
9723;DHT22;4900;49.306;8.500;2023-05-07T08:39:02;31.71;37.56
9723;DHT22;4900;49.306;8.500;2023-05-07T08:41:31;31.82;37.65
9723;DHT22;4900;49.306;8.500;2023-05-07T08:43:58;31.44;37.94
9723;DHT22;4900;49.306;8.500;2023-05-07T08:46:25;31.52;38.11
9723;DHT22;4900;49.306;8.500;2023-05-07T08:48:52;31.50;38.14
9723;DHT22;4900;49.306;8.500;2023-05-07T08:51:20;31.64;37.59
9723;DHT22;4900;49.306;8.500;2023-05-07T08:53:47;32.08;37.49
9723;DHT22;4900;49.306;8.500;2023-05-07T08:56:17;32.37;37.10
9723;DHT22;4900;49.306;8.500;2023-05-07T08:58:43;32.85;36.26
9723;DHT22;4900;49.306;8.500;2023-05-07T09:01:13;33.57;35.77
9723;DHT22;4900;49.306;8.500;2023-05-07T09:03:39;34.35;34.69
9723;DHT22;4900;49.306;8.500;2023-05-07T09:06:05;34.91;34.01
9723;DHT22;4900;49.306;8.500;2023-05-07T09:08:32;35.25;33.19
9723;DHT22;4900;49.306;8.500;2023-05-07T09:11:01;35.33;32.80
9723;DHT22;4900;49.306;8.500;2023-05-07T09:13:27;35.11;32.59
9723;DHT22;4900;49.306;8.500;2023-05-07T09:15:52;34.57;32.99
9723;DHT22;4900;49.306;8.500;2023-05-07T09:18:18;34.33;33.50
9723;DHT22;4900;49.306;8.500;2023-05-07T09:20:43;34.25;33.44
9723;DHT22;4900;49.306;8.500;2023-05-07T09:23:09;33.94;33.87
9723;DHT22;4900;49.306;8.500;2023-05-07T09:25:35;33.77;33.86
9723;DHT22;4900;49.306;8.500;2023-05-07T09:28:03;33.71;33.91
9723;DHT22;4900;49.306;8.500;2023-05-07T09:30:30;33.67;34.27
9723;DHT22;4900;49.306;8.500;2023-05-07T09:33:02;34.06;34.25
9723;DHT22;4900;49.306;8.500;2023-05-07T09:35:29;33.97;33.85
9723;DHT22;4900;49.306;8.500;2023-05-07T09:37:56;33.82;34.21
9723;DHT22;4900;49.306;8.500;2023-05-07T09:40:27;34.09;34.13
9723;DHT22;4900;49.306;8.500;2023-05-07T09:42:53;34.19;33.96
9723;DHT22;4900;49.306;8.500;2023-05-07T09:45:28;34.64;33.43
9723;DHT22;4900;49.306;8.500;2023-05-07T09:47:55;35.15;32.67
9723;DHT22;4900;49.306;8.500;2023-05-07T09:50:29;35.66;32.09
9723;DHT22;4900;49.306;8.500;2023-05-07T09:52:56;36.01;31.80
9723;DHT22;4900;49.306;8.500;2023-05-07T09:55:22;36.35;31.45
9723;DHT22;4900;49.306;8.500;2023-05-07T09:57:52;36.82;30.85
9723;DHT22;4900;49.306;8.500;2023-05-07T10:00:22;36.80;30.50
9723;DHT22;4900;49.306;8.500;2023-05-07T10:02:49;36.93;30.28
9723;DHT22;4900;49.306;8.500;2023-05-07T10:05:16;37.10;30.41
9723;DHT22;4900;49.306;8.500;2023-05-07T10:07:43;37.22;30.27
9723;DHT22;4900;49.306;8.500;2023-05-07T10:10:10;37.55;30.13
9723;DHT22;4900;49.306;8.500;2023-05-07T10:12:35;37.38;29.94
9723;DHT22;4900;49.306;8.500;2023-05-07T10:15:09;37.49;29.77
9723;DHT22;4900;49.306;8.500;2023-05-07T10:17:39;37.62;29.68
9723;DHT22;4900;49.306;8.500;2023-05-07T10:20:06;37.28;29.63
9723;DHT22;4900;49.306;8.500;2023-05-07T10:22:38;37.49;29.49
9723;DHT22;4900;49.306;8.500;2023-05-07T10:25:21;37.61;29.51
9723;DHT22;4900;49.306;8.500;2023-05-07T10:27:50;37.70;29.13
9723;DHT22;4900;49.306;8.500;2023-05-07T10:30:40;37.91;29.43
9723;DHT22;4900;49.306;8.500;2023-05-07T10:33:11;37.66;28.77
9723;DHT22;4900;49.306;8.500;2023-05-07T10:35:41;38.11;28.90
9723;DHT22;4900;49.306;8.500;2023-05-07T10:38:06;38.13;28.85
9723;DHT22;4900;49.306;8.500;2023-05-07T10:40:32;38.56;28.90
9723;DHT22;4900;49.306;8.500;2023-05-07T10:42:59;38.78;28.67
9723;DHT22;4900;49.306;8.500;2023-05-07T10:45:26;38.99;28.32
9723;DHT22;4900;49.306;8.500;2023-05-07T10:48:18;38.99;28.17
9723;DHT22;4900;49.306;8.500;2023-05-07T10:50:45;38.90;28.32
9723;DHT22;4900;49.306;8.500;2023-05-07T10:55:51;39.55;27.51
9723;DHT22;4900;49.306;8.500;2023-05-07T10:58:27;39.84;27.70
9723;DHT22;4900;49.306;8.500;2023-05-07T11:00:57;40.26;27.30
9723;DHT22;4900;49.306;8.500;2023-05-07T11:03:23;40.57;26.87
9723;DHT22;4900;49.306;8.500;2023-05-07T11:11:17;41.13;26.24
9723;DHT22;4900;49.306;8.500;2023-05-07T11:13:47;41.44;26.00
9723;DHT22;4900;49.306;8.500;2023-05-07T11:16:23;41.55;26.08
9723;DHT22;4900;49.306;8.500;2023-05-07T11:18:54;41.78;25.41
9723;DHT22;4900;49.306;8.500;2023-05-07T11:21:38;41.86;25.43
9723;DHT22;4900;49.306;8.500;2023-05-07T11:24:04;42.11;25.02
9723;DHT22;4900;49.306;8.500;2023-05-07T11:26:42;42.09;24.96
9723;DHT22;4900;49.306;8.500;2023-05-07T11:29:12;42.34;24.18
9723;DHT22;4900;49.306;8.500;2023-05-07T11:31:38;42.26;23.90
9723;DHT22;4900;49.306;8.500;2023-05-07T11:34:05;42.48;23.91
9723;DHT22;4900;49.306;8.500;2023-05-07T11:36:32;42.64;23.68
9723;DHT22;4900;49.306;8.500;2023-05-07T11:38:57;42.92;23.68
9723;DHT22;4900;49.306;8.500;2023-05-07T11:41:33;43.22;23.84
9723;DHT22;4900;49.306;8.500;2023-05-07T11:43:59;43.37;23.42
9723;DHT22;4900;49.306;8.500;2023-05-07T11:46:25;43.29;23.48
9723;DHT22;4900;49.306;8.500;2023-05-07T11:48:50;43.06;22.66
9723;DHT22;4900;49.306;8.500;2023-05-07T11:51:20;42.34;22.59
9723;DHT22;4900;49.306;8.500;2023-05-07T11:53:46;41.98;23.30
9723;DHT22;4900;49.306;8.500;2023-05-07T11:56:15;41.98;23.65
9723;DHT22;4900;49.306;8.500;2023-05-07T11:58:41;42.27;23.57
9723;DHT22;4900;49.306;8.500;2023-05-07T12:01:08;42.43;23.95
9723;DHT22;4900;49.306;8.500;2023-05-07T12:03:35;42.41;23.91
9723;DHT22;4900;49.306;8.500;2023-05-07T12:06:02;42.03;23.77
9723;DHT22;4900;49.306;8.500;2023-05-07T12:08:30;42.06;23.89
9723;DHT22;4900;49.306;8.500;2023-05-07T12:10:55;42.29;23.91
9723;DHT22;4900;49.306;8.500;2023-05-07T12:13:22;42.57;23.87
9723;DHT22;4900;49.306;8.500;2023-05-07T12:15:55;42.55;23.59
9723;DHT22;4900;49.306;8.500;2023-05-07T12:18:21;42.17;24.01
9723;DHT22;4900;49.306;8.500;2023-05-07T12:20:48;41.72;23.88
9723;DHT22;4900;49.306;8.500;2023-05-07T12:23:14;41.72;23.96
9723;DHT22;4900;49.306;8.500;2023-05-07T12:25:40;42.03;24.07
9723;DHT22;4900;49.306;8.500;2023-05-07T12:28:13;42.27;23.64
9723;DHT22;4900;49.306;8.500;2023-05-07T12:30:40;42.34;23.89
9723;DHT22;4900;49.306;8.500;2023-05-07T12:33:06;41.75;23.59
9723;DHT22;4900;49.306;8.500;2023-05-07T12:35:35;41.20;23.94
9723;DHT22;4900;49.306;8.500;2023-05-07T12:38:02;40.44;24.45
9723;DHT22;4900;49.306;8.500;2023-05-07T12:40:43;39.85;25.21
9723;DHT22;4900;49.306;8.500;2023-05-07T12:45:45;39.18;26.08
9723;DHT22;4900;49.306;8.500;2023-05-07T12:48:11;38.87;26.18
9723;DHT22;4900;49.306;8.500;2023-05-07T12:50:37;38.59;26.10
9723;DHT22;4900;49.306;8.500;2023-05-07T12:53:04;38.48;26.45
9723;DHT22;4900;49.306;8.500;2023-05-07T12:55:31;38.32;26.65
9723;DHT22;4900;49.306;8.500;2023-05-07T12:58:00;38.07;26.99
9723;DHT22;4900;49.306;8.500;2023-05-07T13:00:36;37.73;27.23
9723;DHT22;4900;49.306;8.500;2023-05-07T13:03:02;37.58;27.19
9723;DHT22;4900;49.306;8.500;2023-05-07T13:05:27;37.63;27.39
9723;DHT22;4900;49.306;8.500;2023-05-07T13:07:56;37.69;27.59
9723;DHT22;4900;49.306;8.500;2023-05-07T13:10:25;37.27;27.58
9723;DHT22;4900;49.306;8.500;2023-05-07T13:12:51;37.22;27.22
9723;DHT22;4900;49.306;8.500;2023-05-07T13:15:17;36.88;27.42
9723;DHT22;4900;49.306;8.500;2023-05-07T13:17:42;36.65;27.62
9723;DHT22;4900;49.306;8.500;2023-05-07T13:20:09;36.39;27.98
9723;DHT22;4900;49.306;8.500;2023-05-07T13:22:35;36.15;28.21
9723;DHT22;4900;49.306;8.500;2023-05-07T13:25:01;36.09;28.51
9723;DHT22;4900;49.306;8.500;2023-05-07T13:27:26;35.83;28.89
9723;DHT22;4900;49.306;8.500;2023-05-07T13:29:52;35.54;29.09
9723;DHT22;4900;49.306;8.500;2023-05-07T13:32:17;35.50;29.31
9723;DHT22;4900;49.306;8.500;2023-05-07T13:34:43;35.14;29.59
9723;DHT22;4900;49.306;8.500;2023-05-07T13:37:08;34.95;29.95
9723;DHT22;4900;49.306;8.500;2023-05-07T13:39:34;34.83;30.46
9723;DHT22;4900;49.306;8.500;2023-05-07T13:41:59;34.73;30.78
9723;DHT22;4900;49.306;8.500;2023-05-07T13:44:25;34.63;31.16
9723;DHT22;4900;49.306;8.500;2023-05-07T13:46:51;34.63;31.11
9723;DHT22;4900;49.306;8.500;2023-05-07T13:49:16;34.81;31.17
9723;DHT22;4900;49.306;8.500;2023-05-07T13:51:41;35.05;30.57
9723;DHT22;4900;49.306;8.500;2023-05-07T13:54:07;35.19;30.68
9723;DHT22;4900;49.306;8.500;2023-05-07T13:56:32;35.18;30.81
9723;DHT22;4900;49.306;8.500;2023-05-07T13:58:58;35.02;30.56
9723;DHT22;4900;49.306;8.500;2023-05-07T14:01:24;34.74;30.89
9723;DHT22;4900;49.306;8.500;2023-05-07T14:03:50;34.23;31.72
9723;DHT22;4900;49.306;8.500;2023-05-07T14:06:15;33.71;32.26
9723;DHT22;4900;49.306;8.500;2023-05-07T14:08:42;32.49;34.04
9723;DHT22;4900;49.306;8.500;2023-05-07T14:11:08;31.95;36.09
9723;DHT22;4900;49.306;8.500;2023-05-07T14:13:33;31.05;38.24
9723;DHT22;4900;49.306;8.500;2023-05-07T14:15:59;30.45;39.92
9723;DHT22;4900;49.306;8.500;2023-05-07T14:18:26;29.68;42.79
9723;DHT22;4900;49.306;8.500;2023-05-07T14:20:51;29.00;44.62
9723;DHT22;4900;49.306;8.500;2023-05-07T14:23:17;28.13;46.09
9723;DHT22;4900;49.306;8.500;2023-05-07T14:25:44;27.44;47.90
9723;DHT22;4900;49.306;8.500;2023-05-07T14:28:11;26.85;49.31
9723;DHT22;4900;49.306;8.500;2023-05-07T14:30:36;26.47;50.30
9723;DHT22;4900;49.306;8.500;2023-05-07T14:33:02;26.09;51.17
9723;DHT22;4900;49.306;8.500;2023-05-07T14:35:27;25.44;52.45
9723;DHT22;4900;49.306;8.500;2023-05-07T14:37:52;25.06;53.29
9723;DHT22;4900;49.306;8.500;2023-05-07T14:40:18;24.76;54.27
9723;DHT22;4900;49.306;8.500;2023-05-07T14:42:43;24.47;55.42
9723;DHT22;4900;49.306;8.500;2023-05-07T14:45:09;23.95;56.30
9723;DHT22;4900;49.306;8.500;2023-05-07T14:47:35;23.64;57.09
9723;DHT22;4900;49.306;8.500;2023-05-07T14:50:00;23.38;58.77
9723;DHT22;4900;49.306;8.500;2023-05-07T14:52:26;23.16;58.08
9723;DHT22;4900;49.306;8.500;2023-05-07T14:54:51;22.90;58.35
9723;DHT22;4900;49.306;8.500;2023-05-07T14:57:17;22.81;58.99
9723;DHT22;4900;49.306;8.500;2023-05-07T14:59:43;22.73;59.34
9723;DHT22;4900;49.306;8.500;2023-05-07T15:02:10;22.67;59.43
9723;DHT22;4900;49.306;8.500;2023-05-07T15:04:36;22.58;60.47
9723;DHT22;4900;49.306;8.500;2023-05-07T15:07:03;22.51;61.19
9723;DHT22;4900;49.306;8.500;2023-05-07T15:09:29;22.48;61.70
9723;DHT22;4900;49.306;8.500;2023-05-07T15:11:54;22.47;61.81
9723;DHT22;4900;49.306;8.500;2023-05-07T15:14:20;22.44;62.30
9723;DHT22;4900;49.306;8.500;2023-05-07T15:16:47;22.43;62.39
9723;DHT22;4900;49.306;8.500;2023-05-07T15:19:13;22.38;62.87
9723;DHT22;4900;49.306;8.500;2023-05-07T15:21:40;22.36;63.41
9723;DHT22;4900;49.306;8.500;2023-05-07T15:24:06;22.26;63.46
9723;DHT22;4900;49.306;8.500;2023-05-07T15:26:31;22.24;63.32
9723;DHT22;4900;49.306;8.500;2023-05-07T15:28:56;22.14;63.11
9723;DHT22;4900;49.306;8.500;2023-05-07T15:31:23;22.09;62.46
9723;DHT22;4900;49.306;8.500;2023-05-07T15:33:49;22.06;62.30
9723;DHT22;4900;49.306;8.500;2023-05-07T15:36:17;22.05;62.40
9723;DHT22;4900;49.306;8.500;2023-05-07T15:38:42;22.02;62.84
9723;DHT22;4900;49.306;8.500;2023-05-07T15:41:08;21.93;63.35
9723;DHT22;4900;49.306;8.500;2023-05-07T15:43:44;21.88;63.80
9723;DHT22;4900;49.306;8.500;2023-05-07T15:46:09;21.83;64.12
9723;DHT22;4900;49.306;8.500;2023-05-07T15:48:35;21.79;64.51
9723;DHT22;4900;49.306;8.500;2023-05-07T15:51:00;21.79;64.79
9723;DHT22;4900;49.306;8.500;2023-05-07T15:53:27;21.74;65.07
9723;DHT22;4900;49.306;8.500;2023-05-07T15:55:53;21.68;65.24
9723;DHT22;4900;49.306;8.500;2023-05-07T15:58:18;21.65;65.23
9723;DHT22;4900;49.306;8.500;2023-05-07T16:00:45;21.62;65.31
9723;DHT22;4900;49.306;8.500;2023-05-07T16:03:10;21.57;65.55
9723;DHT22;4900;49.306;8.500;2023-05-07T16:05:36;21.59;65.73
9723;DHT22;4900;49.306;8.500;2023-05-07T16:08:02;21.62;65.55